createdAt,value
2022-11-29T00:04:15.567Z,98715.94
2022-11-29T00:09:23.271Z,98719.59
2022-11-29T00:14:30.110Z,98722.25
2022-11-29T00:19:36.877Z,98722.50
2022-11-29T00:24:44.731Z,98722.25
2022-11-29T00:29:49.829Z,98722.25
2022-11-29T00:34:59.241Z,98725.41
2022-11-29T00:40:08.156Z,98722.50
2022-11-29T00:45:14.070Z,98725.16
2022-11-29T00:50:19.154Z,98720.38
2022-11-29T00:55:27.528Z,98718.50
2022-11-29T01:00:32.660Z,98720.09
2022-11-29T01:05:38.151Z,98719.63
2022-11-29T01:10:46.104Z,98721.44
2022-11-29T01:15:58.620Z,98724.06
2022-11-29T01:21:06.002Z,98738.84
2022-11-29T01:26:17.737Z,98724.59
2022-11-29T01:31:24.708Z,98730.66
2022-11-29T01:36:29.708Z,98734.88
2022-11-29T01:41:39.276Z,98727.78
2022-11-29T01:46:45.843Z,98726.97
2022-11-29T01:51:54.525Z,98726.47
2022-11-29T01:57:02.508Z,98733.56
2022-11-29T02:02:13.112Z,98729.06
2022-11-29T02:07:18.728Z,98734.09
2022-11-29T02:12:35.384Z,98735.94
2022-11-29T02:17:50.009Z,98727.50
2022-11-29T02:23:02.172Z,98731.72
2022-11-29T02:28:40.947Z,98745.41
2022-11-29T02:34:03.696Z,98744.38
2022-11-29T02:39:41.246Z,98748.56
2022-11-29T02:45:14.124Z,98745.94
2022-11-29T02:50:38.279Z,98744.84
2022-11-29T02:55:49.646Z,98748.06
2022-11-29T03:01:01.801Z,98750.69
2022-11-29T03:06:20.858Z,98753.06
2022-11-29T03:11:34.893Z,98757.50
2022-11-29T03:16:46.415Z,98768.84
2022-11-29T03:22:02.503Z,98764.38
2022-11-29T03:27:15.398Z,98767.50
2022-11-29T03:32:25.911Z,98777.25
2022-11-29T03:37:46.317Z,98781.19
2022-11-29T03:42:56.285Z,98785.91
2022-11-29T03:48:08.035Z,98780.34
2022-11-29T03:53:23.411Z,98779.06
2022-11-29T03:58:45.353Z,98780.06
2022-11-29T04:04:21.698Z,98783.25
2022-11-29T04:09:43.374Z,98786.41
2022-11-29T04:15:16.166Z,98786.94
2022-11-29T04:20:53.633Z,98797.72
2022-11-29T04:26:17.177Z,98797.94
2022-11-29T04:31:38.090Z,98793.72
2022-11-29T04:37:11.212Z,98790.31
2022-11-29T04:42:40.433Z,98804.78
2022-11-29T04:48:04.080Z,98801.63
2022-11-29T04:53:31.656Z,98805.81
2022-11-29T04:58:46.545Z,98810.78
2022-11-29T05:03:58.301Z,98817.16
2022-11-29T05:09:12.564Z,98815.00
2022-11-29T05:14:31.395Z,98818.94
2022-11-29T05:19:58.679Z,98827.69
2022-11-29T05:25:20.438Z,98828.97
2022-11-29T05:30:40.165Z,98829.44
2022-11-29T05:35:55.326Z,98843.66
2022-11-29T05:41:12.280Z,98842.91
2022-11-29T05:46:25.903Z,98844.44
2022-11-29T05:51:42.133Z,98840.22
2022-11-29T05:56:58.612Z,98848.91
2022-11-29T06:02:23.342Z,98855.69
2022-11-29T06:07:34.312Z,98855.38
2022-11-29T06:12:40.394Z,98857.69
2022-11-29T06:18:18.099Z,98861.44
2022-11-29T06:23:59.501Z,98868.28
2022-11-29T06:29:23.821Z,98871.16
2022-11-29T06:34:38.597Z,98883.25
2022-11-29T06:39:44.200Z,98888.94
2022-11-29T06:44:52.019Z,98883.72
2022-11-29T06:50:05.668Z,98883.50
2022-11-29T06:55:18.148Z,98892.22
2022-11-29T07:00:27.883Z,98888.72
2022-11-29T07:05:37.586Z,98893.00
2022-11-29T07:10:46.673Z,98911.44
2022-11-29T07:16:01.405Z,98909.94
2022-11-29T07:21:38.113Z,98915.88
2022-11-29T07:26:56.517Z,98923.09
2022-11-29T07:32:13.028Z,98932.28
2022-11-29T07:37:31.750Z,98931.75
2022-11-29T07:42:48.767Z,98934.69
2022-11-29T07:47:54.799Z,98930.78
2022-11-29T07:53:04.273Z,98936.56
2022-11-29T07:58:09.732Z,98947.91
2022-11-29T08:03:16.048Z,98946.66
2022-11-29T08:08:25.113Z,98946.94
2022-11-29T08:13:31.548Z,98956.97
2022-11-29T08:18:39.120Z,98954.06
2022-11-29T08:23:46.940Z,98950.94
2022-11-29T08:28:57.359Z,98953.88
2022-11-29T08:34:02.827Z,98952.09
2022-11-29T08:39:11.077Z,98951.28
2022-11-29T08:44:16.260Z,98953.44
2022-11-29T08:49:23.091Z,98954.00
2022-11-29T08:54:33.044Z,98960.34
2022-11-29T08:59:38.492Z,98964.53
2022-11-29T09:04:57.802Z,98975.44
2022-11-29T09:10:12.276Z,98979.13
2022-11-29T09:15:17.351Z,98978.34
2022-11-29T09:20:22.313Z,98987.00
2022-11-29T09:25:32.490Z,98984.22
2022-11-29T09:30:38.228Z,98988.72
2022-11-29T09:35:43.739Z,98993.94
2022-11-29T09:40:56.116Z,98983.19
2022-11-29T09:46:08.640Z,98985.34
2022-11-29T09:51:26.226Z,98992.06
2022-11-29T09:56:40.356Z,98987.53
2022-11-29T10:02:04.658Z,98994.44
2022-11-29T10:07:22.687Z,98993.13
2022-11-29T10:12:38.886Z,98987.56
2022-11-29T10:17:51.808Z,98987.31
2022-11-29T10:23:02.118Z,98992.31
2022-11-29T10:28:16.366Z,98985.69
2022-11-29T10:33:25.578Z,98997.56
2022-11-29T10:38:31.949Z,98989.41
2022-11-29T10:43:48.161Z,99000.25
2022-11-29T10:48:53.324Z,98999.22
2022-11-29T10:53:59.587Z,98996.78
2022-11-29T10:59:09.116Z,98995.47
2022-11-29T11:04:20.135Z,98992.00
2022-11-29T11:09:33.338Z,99005.19
2022-11-29T11:14:45.657Z,98999.16
2022-11-29T11:20:00.954Z,99006.03
2022-11-29T11:25:08.842Z,99000.50
2022-11-29T11:30:29.452Z,99007.06
2022-11-29T11:35:37.476Z,99017.13
2022-11-29T11:40:53.608Z,99010.78
2022-11-29T11:46:06.874Z,99014.22
2022-11-29T11:51:25.675Z,99003.16
2022-11-29T11:56:38.027Z,99010.81
2022-11-29T12:01:45.996Z,99006.06
2022-11-29T12:06:56.212Z,99009.84
2022-11-29T12:12:11.785Z,99016.44
2022-11-29T12:17:33.826Z,99024.34
2022-11-29T12:22:48.308Z,99023.06
2022-11-29T12:27:55.547Z,99024.09
2022-11-29T12:33:20.126Z,99024.63
2022-11-29T12:38:45.173Z,99026.47
2022-11-29T12:44:05.149Z,99026.47
2022-11-29T12:49:22.743Z,99035.13
2022-11-29T12:54:48.052Z,99040.38
2022-11-29T13:00:14.709Z,99041.38
2022-11-29T13:05:37.620Z,99046.19
2022-11-29T13:11:01.796Z,99053.56
2022-11-29T13:16:18.940Z,99051.97
2022-11-29T13:21:35.876Z,99048.25
2022-11-29T13:26:45.689Z,99039.03
2022-11-29T13:32:02.643Z,99051.66
2022-11-29T13:37:25.209Z,99059.06
2022-11-29T13:42:49.805Z,99062.00
2022-11-29T13:47:57.610Z,99057.81
2022-11-29T13:53:16.003Z,99064.59
2022-11-29T13:58:38.628Z,99068.81
2022-11-29T14:03:45.208Z,99077.53
2022-11-29T14:09:36.794Z,99071.91
2022-11-29T14:14:55.674Z,99076.94
2022-11-29T14:20:54.223Z,99080.38
2022-11-29T14:26:28.805Z,99078.22
2022-11-29T14:31:58.726Z,99078.22
2022-11-29T14:37:20.162Z,99093.75
2022-11-29T14:42:28.606Z,99079.00
2022-11-29T14:47:42.334Z,99087.66
2022-11-29T14:52:56.140Z,99085.53
2022-11-29T14:58:19.678Z,99094.72
2022-11-29T15:03:35.147Z,99109.16
2022-11-29T15:08:51.869Z,99104.97
2022-11-29T15:14:04.282Z,99106.03
2022-11-29T15:19:39.991Z,99110.81
2022-11-29T15:24:59.518Z,99111.22
2022-11-29T15:30:23.633Z,99112.81
2022-11-29T15:35:34.427Z,99118.53
2022-11-29T15:40:48.200Z,99129.06
2022-11-29T15:45:57.000Z,99138.81
2022-11-29T15:51:08.406Z,99146.38
2022-11-29T15:56:20.569Z,99145.25
2022-11-29T16:01:29.934Z,99152.13
2022-11-29T16:06:43.849Z,99149.03
2022-11-29T16:11:51.140Z,99160.84
2022-11-29T16:16:58.880Z,99161.66
2022-11-29T16:22:16.521Z,99165.31
2022-11-29T16:27:25.550Z,99171.88
2022-11-29T16:32:33.655Z,99170.06
2022-11-29T16:37:56.167Z,99171.06
2022-11-29T16:43:43.003Z,99174.78
2022-11-29T16:48:56.233Z,99171.88
2022-11-29T16:54:23.535Z,99187.22
2022-11-29T16:59:30.180Z,99193.56
2022-11-29T17:04:37.959Z,99188.47
2022-11-29T17:09:43.042Z,99190.09
2022-11-29T17:14:48.789Z,99192.53
2022-11-29T17:20:02.375Z,99186.00
2022-11-29T17:25:10.386Z,99199.56
2022-11-29T17:30:18.506Z,99199.84
2022-11-29T17:35:28.587Z,99202.94
2022-11-29T17:40:36.068Z,99206.25
2022-11-29T17:45:42.992Z,99215.38
2022-11-29T17:50:50.647Z,99224.09
2022-11-29T17:56:04.236Z,99227.81
2022-11-29T18:01:12.028Z,99233.81
2022-11-29T18:06:22.325Z,99234.56
2022-11-29T18:11:30.285Z,99236.97
2022-11-29T18:16:37.478Z,99233.00
2022-11-29T18:21:45.741Z,99234.34
2022-11-29T18:26:51.404Z,99234.78
2022-11-29T18:32:02.067Z,99226.09
2022-11-29T18:37:15.432Z,99238.81
2022-11-29T18:42:25.774Z,99242.25
2022-11-29T18:47:33.066Z,99247.41
2022-11-29T18:52:40.958Z,99235.22
2022-11-29T18:57:46.514Z,99237.91
2022-11-29T19:02:51.615Z,99241.59
2022-11-29T19:08:02.813Z,99251.63
2022-11-29T19:13:09.179Z,99262.78
2022-11-29T19:18:16.418Z,99251.56
2022-11-29T19:23:25.490Z,99261.66
2022-11-29T19:28:34.814Z,99260.63
2022-11-29T19:33:44.947Z,99265.56
2022-11-29T19:38:55.783Z,99266.09
2022-11-29T19:44:03.719Z,99264.28
2022-11-29T19:49:11.631Z,99263.41
2022-11-29T19:54:19.667Z,99272.34
2022-11-29T19:59:24.896Z,99272.84
2022-11-29T20:04:30.556Z,99275.88
2022-11-29T20:09:39.074Z,99276.22
2022-11-29T20:14:45.527Z,99280.84
2022-11-29T20:19:52.376Z,99291.31
2022-11-29T20:25:03.080Z,99298.75
2022-11-29T20:30:13.508Z,99303.75
2022-11-29T20:35:20.280Z,99302.41
2022-11-29T20:40:42.141Z,99312.47
2022-11-29T20:45:48.318Z,99300.59
2022-11-29T20:51:00.640Z,99307.72
2022-11-29T20:56:11.164Z,99309.47
2022-11-29T21:01:16.846Z,99309.00
2022-11-29T21:06:22.354Z,99300.13
2022-11-29T21:11:31.929Z,99307.91
2022-11-29T21:16:43.319Z,99313.72
2022-11-29T21:22:00.027Z,99313.94
2022-11-29T21:27:12.548Z,99321.28
2022-11-29T21:32:24.535Z,99322.28
2022-11-29T21:37:33.238Z,99325.59
2022-11-29T21:42:40.841Z,99326.81
2022-11-29T21:47:46.192Z,99330.38
2022-11-29T21:52:54.250Z,99331.41
2022-11-29T21:58:01.801Z,99330.72
2022-11-29T22:03:14.321Z,99337.41
2022-11-29T22:08:19.335Z,99329.44
2022-11-29T22:13:26.918Z,99338.41
2022-11-29T22:18:31.916Z,99338.06
2022-11-29T22:23:37.814Z,99326.34
2022-11-29T22:28:51.297Z,99330.00
2022-11-29T22:34:01.600Z,99330.47
2022-11-29T22:39:07.337Z,99325.69
2022-11-29T22:44:14.899Z,99333.91
2022-11-29T22:49:19.798Z,99326.88
2022-11-29T22:54:24.713Z,99323.78
2022-11-29T22:59:33.983Z,99331.44
2022-11-29T23:04:38.980Z,99330.41
2022-11-29T23:09:44.324Z,99338.22
2022-11-29T23:14:56.381Z,99336.69
2022-11-29T23:20:01.933Z,99334.25
2022-11-29T23:25:07.975Z,99331.84
2022-11-29T23:30:18.177Z,99337.44
2022-11-29T23:35:23.111Z,99326.09
2022-11-29T23:40:27.979Z,99329.44
2022-11-29T23:45:35.638Z,99332.41
2022-11-29T23:50:40.616Z,99326.09
2022-11-29T23:55:47.720Z,99333.94
